Time;durP1;ratioP1;P1;durP2;ratioP2;P2;SDS_P1;SDS_P2;PMS_P1;PMS_P2;Temp;Humidity;BMP_temperature;BMP_pressure;BME280_temperature;BME280_humidity;BME280_pressure;Samples;Min_cycle;Max_cycle;Signal;HPM_P1;HPM_P2
2022/02/03 00:00:42;;;;;;;5.63;4.73;;;;;;;;;;5076776;28;20478;-76
2022/02/03 00:03:20;;;;;;;5.93;4.53;;;;;;;;;;5075421;28;20428;-76
2022/02/03 00:05:55;;;;;;;11.13;6.50;;;;;;;;;;5077386;28;20381;-75
2022/02/03 00:24:50;;;;;;;9.47;5.07;;;;;;;;;;5076407;28;20381;-77
2022/02/03 00:36:41;;;;;;;5.63;4.37;;;;;;;;;;5077155;28;20378;-76
2022/02/03 00:49:12;;;;;;;6.83;4.20;;;;;;;;;;5076476;28;20384;-77
2022/02/03 00:51:43;;;;;;;7.43;4.40;;;;;;;;;;5075911;28;20913;-76
2022/02/03 00:54:11;;;;;;;10.20;4.60;;;;;;;;;;5075949;28;20417;-76
2022/02/03 00:56:41;;;;;;;5.80;3.60;;;;;;;;;;5077131;28;20474;-76
2022/02/03 00:59:11;;;;;;;6.57;4.50;;;;;;;;;;5074838;28;20976;-76
2022/02/03 01:01:39;;;;;;;6.70;3.77;;;;;;;;;;5076619;28;20473;-77
2022/02/03 01:04:06;;;;;;;6.40;5.03;;;;;;;;;;5080070;28;20417;-76
2022/02/03 01:06:34;;;;;;;8.70;4.40;;;;;;;;;;5076284;28;20405;-76
2022/02/03 01:09:01;;;;;;;8.77;6.37;;;;;;;;;;5076402;28;20409;-77
2022/02/03 01:11:34;;;;;;;9.83;4.20;;;;;;;;;;5075984;28;20413;-76
2022/02/03 01:14:10;;;;;;;11.23;5.63;;;;;;;;;;5080928;28;20783;-77
2022/02/03 01:44:12;;;;;;;5.83;4.37;;;;;;;;;;5075210;28;20420;-76
2022/02/03 01:46:57;;;;;;;6.67;4.90;;;;;;;;;;5074632;28;20416;-77
2022/02/03 01:51:37;;;;;;;8.53;4.73;;;;;;;;;;5073045;28;20405;-76
2022/02/03 01:52:14;;;;;;;6.60;4.17;;;;;;;;;;5073772;28;20432;-76
2022/02/03 01:54:43;;;;;;;5.50;4.03;;;;;;;;;;5073812;28;20469;-76
2022/02/03 01:57:12;;;;;;;8.13;4.63;;;;;;;;;;5074129;28;20412;-76
2022/02/03 01:59:40;;;;;;;6.83;5.23;;;;;;;;;;5073844;28;20412;-76
2022/02/03 02:02:07;;;;;;;7.43;4.97;;;;;;;;;;5074384;28;20414;-76
2022/02/03 02:04:36;;;;;;;5.10;4.33;;;;;;;;;;5073764;28;20440;-76
2022/02/03 02:07:20;;;;;;;7.50;4.80;;;;;;;;;;5073925;28;20809;-76
2022/02/03 02:10:05;;;;;;;7.23;4.40;;;;;;;;;;5074806;28;20907;-76
2022/02/03 02:13:00;;;;;;;8.03;5.50;;;;;;;;;;5074021;28;20439;-76
2022/02/03 02:40:00;;;;;;;5.23;4.20;;;;;;;;;;5064457;28;20484;-77
2022/02/03 02:42:37;;;;;;;8.07;5.47;;;;;;;;;;5057390;28;20424;-76
2022/02/03 02:45:09;;;;;;;5.83;4.50;;;;;;;;;;5056473;28;20389;-76
2022/02/03 02:47:54;;;;;;;7.03;4.93;;;;;;;;;;5055171;28;20450;-76
2022/02/03 02:51:07;;;;;;;7.03;5.00;;;;;;;;;;5056641;28;20489;-76
2022/02/03 02:53:31;;;;;;;7.43;4.50;;;;;;;;;;5053086;28;20571;-76
2022/02/03 02:59:07;;;;;;;6.90;4.87;;;;;;;;;;5056557;28;20445;-76
2022/02/03 03:32:40;;;;;;;5.87;4.57;;;;;;;;;;5055600;28;20428;-75
2022/02/03 03:35:31;;;;;;;6.57;4.70;;;;;;;;;;5055755;28;20390;-75
2022/02/03 03:37:58;;;;;;;4.93;3.37;;;;;;;;;;5055482;28;20433;-75
2022/02/03 03:40:25;;;;;;;4.37;3.63;;;;;;;;;;5059084;28;20410;-76
2022/02/03 03:43:07;;;;;;;5.90;3.43;;;;;;;;;;5060173;28;20429;-76
2022/02/03 03:45:34;;;;;;;5.30;4.33;;;;;;;;;;5056161;28;20919;-76
2022/02/03 03:48:01;;;;;;;5.70;3.73;;;;;;;;;;5054358;28;20906;-76
2022/02/03 03:50:29;;;;;;;5.50;4.20;;;;;;;;;;5055307;28;20406;-76
2022/02/03 03:53:00;;;;;;;4.47;3.47;;;;;;;;;;5055520;28;20425;-75
2022/02/03 03:59:10;;;;;;;3.87;3.00;;;;;;;;;;5056110;28;20501;-75
2022/02/03 04:39:02;;;;;;;3.57;2.60;;;;;;;;;;5074971;28;20479;-76
2022/02/03 04:42:08;;;;;;;3.00;2.20;;;;;;;;;;5074388;28;20458;-76
2022/02/03 05:04:57;;;;;;;5.17;2.30;;;;;;;;;;5074021;28;20370;-76
2022/02/03 05:08:37;;;;;;;5.83;3.00;;;;;;;;;;5073697;28;20493;-76
2022/02/03 05:16:13;;;;;;;5.17;2.67;;;;;;;;;;5086262;28;20431;-76
2022/02/03 05:24:45;;;;;;;3.80;2.50;;;;;;;;;;5072350;23;20493;-82
2022/02/03 05:48:26;;;;;;;5.03;2.60;;;;;;;;;;5053820;28;20446;-83
2022/02/03 05:51:27;;;;;;;5.87;3.20;;;;;;;;;;5058209;28;20402;-82
2022/02/03 06:05:31;;;;;;;4.90;3.10;;;;;;;;;;5059736;28;20386;-83
2022/02/03 06:13:01;;;;;;;4.90;2.90;;;;;;;;;;5058848;28;20429;-83
2022/02/03 06:15:38;;;;;;;3.97;2.60;;;;;;;;;;5059171;28;20410;-83
2022/02/03 06:23:40;;;;;;;2.87;2.07;;;;;;;;;;5060655;28;20457;-83
2022/02/03 06:28:56;;;;;;;4.00;2.50;;;;;;;;;;5040272;28;20432;-83
2022/02/03 06:31:22;;;;;;;7.73;3.90;;;;;;;;;;5059145;28;20406;-83
2022/02/03 06:33:48;;;;;;;5.93;3.53;;;;;;;;;;5058611;28;20810;-83
2022/02/03 06:36:14;;;;;;;3.43;2.60;;;;;;;;;;5057684;28;20783;-82
2022/02/03 06:38:40;;;;;;;3.50;2.77;;;;;;;;;;5055663;28;20464;-82
2022/02/03 06:41:06;;;;;;;6.70;2.83;;;;;;;;;;5054675;28;20483;-82
2022/02/03 06:43:32;;;;;;;3.40;2.43;;;;;;;;;;5057147;28;20437;-82
2022/02/03 06:46:02;;;;;;;4.03;2.73;;;;;;;;;;5059216;28;20439;-83
2022/02/03 06:48:31;;;;;;;5.10;3.93;;;;;;;;;;5059088;28;20797;-82
2022/02/03 06:51:06;;;;;;;2.90;2.33;;;;;;;;;;5057719;28;20420;-81
2022/02/03 06:53:36;;;;;;;3.70;2.60;;;;;;;;;;5059395;28;20429;-82
2022/02/03 06:58:41;;;;;;;3.27;2.70;;;;;;;;;;5066603;28;20451;-80
2022/02/03 07:01:17;;;;;;;3.10;2.40;;;;;;;;;;5059385;28;20408;-83
2022/02/03 07:03:53;;;;;;;4.27;2.33;;;;;;;;;;5061705;28;20501;-83
2022/02/03 07:06:19;;;;;;;3.27;2.60;;;;;;;;;;5063505;28;20440;-82
2022/02/03 07:08:46;;;;;;;3.00;2.70;;;;;;;;;;5065505;28;20514;-82
2022/02/03 07:11:17;;;;;;;3.73;2.80;;;;;;;;;;5060299;28;20435;-83
2022/02/03 07:13:43;;;;;;;5.73;3.10;;;;;;;;;;5060802;28;20453;-83
2022/02/03 07:16:09;;;;;;;7.50;3.00;;;;;;;;;;5058417;28;20425;-83
2022/02/03 07:18:35;;;;;;;3.53;2.90;;;;;;;;;;5058887;28;20449;-82
2022/02/03 07:21:01;;;;;;;8.60;2.67;;;;;;;;;;5059292;28;20402;-83
2022/02/03 07:23:28;;;;;;;2.67;1.97;;;;;;;;;;5059694;28;20437;-82
2022/02/03 07:25:54;;;;;;;3.40;2.50;;;;;;;;;;5062754;28;20437;-82
2022/02/03 07:28:20;;;;;;;3.57;2.43;;;;;;;;;;5061942;28;20516;-83
2022/02/03 07:30:46;;;;;;;3.23;2.40;;;;;;;;;;5062433;28;20487;-83
2022/02/03 07:33:13;;;;;;;4.17;2.60;;;;;;;;;;5063395;28;20429;-83
2022/02/03 07:35:39;;;;;;;5.33;2.90;;;;;;;;;;5064890;28;20893;-82
2022/02/03 07:38:07;;;;;;;4.40;2.73;;;;;;;;;;5079087;28;20487;-82
2022/02/03 07:40:34;;;;;;;7.07;3.37;;;;;;;;;;5064148;28;20898;-83
2022/02/03 07:43:03;;;;;;;6.40;2.90;;;;;;;;;;5062207;28;20929;-83
2022/02/03 07:45:30;;;;;;;6.27;3.60;;;;;;;;;;5070389;28;20472;-82
2022/02/03 07:47:57;;;;;;;7.30;4.67;;;;;;;;;;5063340;28;20410;-82
2022/02/03 07:50:23;;;;;;;5.23;3.50;;;;;;;;;;5062538;28;20429;-82
2022/02/03 07:52:49;;;;;;;7.37;3.40;;;;;;;;;;5061644;28;20835;-83
2022/02/03 07:55:16;;;;;;;4.80;3.40;;;;;;;;;;5060092;28;20413;-83
2022/02/03 07:57:46;;;;;;;3.20;2.57;;;;;;;;;;5050898;28;20513;-82
2022/02/03 08:00:13;;;;;;;4.07;2.70;;;;;;;;;;5053384;28;20416;-83
2022/02/03 08:02:42;;;;;;;5.17;3.17;;;;;;;;;;5059915;28;20537;-82
2022/02/03 08:05:09;;;;;;;3.70;3.00;;;;;;;;;;5049374;28;20414;-83
2022/02/03 08:07:46;;;;;;;7.03;3.20;;;;;;;;;;5045742;28;20421;-83
2022/02/03 08:10:27;;;;;;;4.00;2.70;;;;;;;;;;5045232;28;20422;-82
2022/02/03 08:12:53;;;;;;;4.83;3.70;;;;;;;;;;5048087;28;21011;-81
2022/02/03 08:15:22;;;;;;;6.20;3.27;;;;;;;;;;5041821;28;20436;-80
2022/02/03 08:17:48;;;;;;;4.70;3.10;;;;;;;;;;5045879;28;20518;-80
2022/02/03 08:20:17;;;;;;;3.87;2.90;;;;;;;;;;5044091;28;20437;-83
2022/02/03 08:22:51;;;;;;;5.20;3.30;;;;;;;;;;5045420;28;20528;-85
2022/02/03 08:25:24;;;;;;;4.33;3.07;;;;;;;;;;5048913;28;20531;-82
2022/02/03 08:30:46;;;;;;;5.20;3.30;;;;;;;;;;5043747;28;20512;-81
2022/02/03 08:33:19;;;;;;;5.20;4.30;;;;;;;;;;5067332;28;20418;-81
2022/02/03 08:35:49;;;;;;;4.20;2.80;;;;;;;;;;5052163;28;20426;-80
2022/02/03 08:38:20;;;;;;;3.10;2.70;;;;;;;;;;5047017;28;20829;-79
2022/02/03 08:40:59;;;;;;;4.30;3.23;;;;;;;;;;5059347;28;20501;-79
2022/02/03 08:43:28;;;;;;;6.50;3.17;;;;;;;;;;5064565;28;20518;-80
2022/02/03 08:45:54;;;;;;;3.60;3.10;;;;;;;;;;5043782;28;20501;-80
2022/02/03 08:48:21;;;;;;;5.37;3.90;;;;;;;;;;5062009;28;20901;-79
2022/02/03 08:50:47;;;;;;;3.83;3.27;;;;;;;;;;5058968;28;20530;-80
2022/02/03 08:53:29;;;;;;;4.60;3.30;;;;;;;;;;5053614;28;20445;-82
2022/02/03 09:28:17;;;;;;;5.43;3.50;;;;;;;;;;5049706;28;20586;-81
2022/02/03 09:57:54;;;;;;;3.53;2.10;;;;;;;;;;5052258;28;20488;-81
2022/02/03 10:01:23;;;;;;;2.40;1.80;;;;;;;;;;5050803;28;20414;-78
2022/02/03 10:03:31;;;;;;;2.07;1.70;;;;;;;;;;5052897;28;20481;-79
2022/02/03 10:08:33;;;;;;;2.80;1.70;;;;;;;;;;5059926;28;20425;-80
2022/02/03 10:11:11;;;;;;;2.17;1.93;;;;;;;;;;5040157;28;20426;-81
2022/02/03 10:13:42;;;;;;;2.93;2.40;;;;;;;;;;5040567;28;20444;-80
2022/02/03 10:16:08;;;;;;;2.30;1.47;;;;;;;;;;5038819;28;20441;-82
2022/02/03 10:18:34;;;;;;;2.27;1.50;;;;;;;;;;5044985;28;20466;-80
2022/02/03 10:21:01;;;;;;;2.20;1.60;;;;;;;;;;5050227;28;20421;-79
2022/02/03 10:23:29;;;;;;;2.73;1.60;;;;;;;;;;5042243;28;20457;-81
2022/02/03 10:26:05;;;;;;;2.70;2.10;;;;;;;;;;5040621;28;20427;-81
2022/02/03 10:28:31;;;;;;;1.73;1.40;;;;;;;;;;5043092;28;20827;-80
2022/02/03 10:31:03;;;;;;;2.37;1.97;;;;;;;;;;5044525;28;20790;-81
2022/02/03 10:33:34;;;;;;;2.10;1.60;;;;;;;;;;5047888;28;20453;-83
2022/02/03 10:36:07;;;;;;;2.00;1.53;;;;;;;;;;5036331;28;20496;-83
2022/02/03 10:39:07;;;;;;;1.70;1.40;;;;;;;;;;5041027;28;20453;-81
2022/02/03 10:44:42;;;;;;;2.13;1.20;;;;;;;;;;5047112;28;20460;-81
2022/02/03 10:47:36;;;;;;;1.87;1.50;;;;;;;;;;5041042;28;20409;-82
2022/02/03 10:50:15;;;;;;;1.60;1.27;;;;;;;;;;5044387;28;20403;-82
2022/02/03 10:55:31;;;;;;;2.50;2.00;;;;;;;;;;5044288;28;20444;-82
2022/02/03 11:09:08;;;;;;;2.47;1.57;;;;;;;;;;5054061;28;20471;-81
2022/02/03 11:11:37;;;;;;;5.67;4.43;;;;;;;;;;5054781;28;20422;-81
2022/02/03 11:14:04;;;;;;;3.60;1.90;;;;;;;;;;5051408;28;20441;-81
2022/02/03 11:16:33;;;;;;;2.30;1.43;;;;;;;;;;5052079;28;20448;-81
2022/02/03 11:19:05;;;;;;;1.80;1.40;;;;;;;;;;5051189;28;20457;-81
2022/02/03 11:21:33;;;;;;;2.73;1.50;;;;;;;;;;5051261;28;20955;-82
2022/02/03 11:24:05;;;;;;;2.23;1.40;;;;;;;;;;5041339;28;20872;-82
2022/02/03 11:50:26;;;;;;;1.90;1.23;;;;;;;;;;5045701;28;20736;-81
2022/02/03 12:01:17;;;;;;;2.63;1.57;;;;;;;;;;5039493;28;20445;-83
2022/02/03 12:04:08;;;;;;;2.10;1.37;;;;;;;;;;5045806;28;20981;-83
2022/02/03 12:20:34;;;;;;;2.30;1.30;;;;;;;;;;5046183;28;20410;-83
2022/02/03 12:25:45;;;;;;;2.60;1.20;;;;;;;;;;5045494;28;20440;-83
2022/02/03 12:38:48;;;;;;;2.30;1.60;;;;;;;;;;5051551;28;20476;-83
2022/02/03 12:41:20;;;;;;;3.30;1.73;;;;;;;;;;5052925;28;20447;-83
2022/02/03 12:44:00;;;;;;;4.60;2.00;;;;;;;;;;5050628;28;21371;-83
2022/02/03 12:46:27;;;;;;;4.93;1.77;;;;;;;;;;5040837;28;20418;-82
2022/02/03 12:49:00;;;;;;;2.47;1.90;;;;;;;;;;5050644;28;20418;-85
2022/02/03 12:51:27;;;;;;;3.50;1.80;;;;;;;;;;5046511;28;20460;-84
2022/02/03 12:53:54;;;;;;;2.63;1.30;;;;;;;;;;5043478;28;20462;-83
2022/02/03 12:56:24;;;;;;;1.90;1.20;;;;;;;;;;5043508;28;20437;-82
2022/02/03 12:59:00;;;;;;;7.67;2.70;;;;;;;;;;5043990;28;20466;-82
2022/02/03 13:01:35;;;;;;;3.40;2.10;;;;;;;;;;5044988;28;20433;-83
2022/02/03 13:04:10;;;;;;;2.10;1.00;;;;;;;;;;5042952;28;20960;-81
2022/02/03 13:06:41;;;;;;;4.17;1.47;;;;;;;;;;5045070;28;20425;-82
2022/02/03 13:09:09;;;;;;;2.80;1.20;;;;;;;;;;5048551;28;20413;-82
2022/02/03 13:11:41;;;;;;;2.07;1.37;;;;;;;;;;5045076;28;20434;-84
2022/02/03 13:16:38;;;;;;;3.00;1.47;;;;;;;;;;5041044;28;20414;-83
2022/02/03 13:19:29;;;;;;;3.00;1.87;;;;;;;;;;5041093;28;20461;-83
2022/02/03 13:27:09;;;;;;;3.73;1.50;;;;;;;;;;5041844;28;20403;-82
2022/02/03 13:32:23;;;;;;;4.73;1.50;;;;;;;;;;5042582;28;20410;-81
2022/02/03 13:35:00;;;;;;;2.03;1.30;;;;;;;;;;5042380;28;20441;-80
2022/02/03 13:37:34;;;;;;;2.30;1.70;;;;;;;;;;5052026;28;20433;-81
2022/02/03 13:40:07;;;;;;;4.93;1.57;;;;;;;;;;5045085;28;20902;-80
2022/02/03 13:42:33;;;;;;;1.83;1.27;;;;;;;;;;5038401;28;20438;-83
2022/02/03 13:45:06;;;;;;;2.80;2.10;;;;;;;;;;5054953;28;20434;-82
2022/02/03 13:47:35;;;;;;;5.23;2.40;;;;;;;;;;5047461;28;20903;-81
2022/02/03 13:50:02;;;;;;;3.00;1.57;;;;;;;;;;5043348;28;20452;-81
2022/02/03 13:52:38;;;;;;;3.40;1.70;;;;;;;;;;5045106;28;20406;-83
2022/02/03 14:22:02;;;;;;;5.17;3.70;;;;;;;;;;5042712;28;20492;-82
2022/02/03 14:29:46;;;;;;;3.87;2.40;;;;;;;;;;5045240;28;20426;-81
2022/02/03 14:32:14;;;;;;;3.37;2.70;;;;;;;;;;5040995;28;20528;-80
2022/02/03 14:34:41;;;;;;;3.07;2.27;;;;;;;;;;5048329;28;20442;-81
2022/02/03 14:37:34;;;;;;;5.53;3.07;;;;;;;;;;5045286;28;20426;-82
2022/02/03 14:42:34;;;;;;;4.27;2.70;;;;;;;;;;5043787;28;20489;-82
2022/02/03 14:45:00;;;;;;;4.13;2.03;;;;;;;;;;5040795;28;20414;-80
2022/02/03 14:47:29;;;;;;;3.43;2.40;;;;;;;;;;5055059;28;20820;-81
2022/02/03 14:49:59;;;;;;;5.00;2.07;;;;;;;;;;5049418;28;20517;-81
2022/02/03 14:52:29;;;;;;;4.23;2.27;;;;;;;;;;5051968;28;20414;-81
2022/02/03 15:00:27;;;;;;;4.27;2.10;;;;;;;;;;5058467;28;20421;-81
2022/02/03 15:02:53;;;;;;;4.80;2.30;;;;;;;;;;5049187;28;20433;-81
2022/02/03 15:05:28;;;;;;;6.50;2.93;;;;;;;;;;5043132;28;22439;-81
2022/02/03 15:07:58;;;;;;;3.17;2.30;;;;;;;;;;5041260;28;20463;-82
2022/02/03 15:10:41;;;;;;;4.63;2.20;;;;;;;;;;5045585;28;20414;-80
2022/02/03 15:15:39;;;;;;;2.73;1.80;;;;;;;;;;5051736;28;20512;-81
2022/02/03 15:18:05;;;;;;;3.10;1.70;;;;;;;;;;5045340;28;20457;-81
2022/02/03 15:20:31;;;;;;;12.40;2.47;;;;;;;;;;5047251;28;20421;-80
2022/02/03 15:22:57;;;;;;;2.80;2.27;;;;;;;;;;5044332;28;20445;-80
2022/02/03 15:25:24;;;;;;;4.20;2.03;;;;;;;;;;5046624;28;20516;-80
2022/02/03 15:27:50;;;;;;;8.27;2.70;;;;;;;;;;5056817;28;20427;-79
2022/02/03 15:30:16;;;;;;;3.63;1.97;;;;;;;;;;5056332;28;20473;-79
2022/02/03 15:32:44;;;;;;;3.57;2.00;;;;;;;;;;5061032;28;20433;-81
2022/02/03 15:35:19;;;;;;;2.73;1.90;;;;;;;;;;5054942;28;20405;-80
2022/02/03 15:37:47;;;;;;;3.57;2.40;;;;;;;;;;5056746;23;20494;-77
2022/02/03 15:40:18;;;;;;;3.97;2.20;;;;;;;;;;5044282;28;20488;-77
2022/02/03 15:43:16;;;;;;;;;;;;;;;;;;;;;
2022/02/03 15:45:58;;;;;;;3.10;2.50;;;;;;;;;;5052544;28;20413;-77
2022/02/03 15:51:21;;;;;;;3.57;2.47;;;;;;;;;;5050147;28;20775;-76
2022/02/03 16:18:28;;;;;;;6.20;3.27;;;;;;;;;;5038184;28;20820;-74
2022/02/03 16:21:01;;;;;;;6.22;3.10;;;;;;;;;;5039876;28;20467;-77
2022/02/03 16:23:54;;;;;;;5.47;3.03;;;;;;;;;;5042955;28;20176;-74
2022/02/03 16:26:40;;;;;;;6.00;3.23;;;;;;;;;;5038594;28;20433;-76
2022/02/03 16:51:06;;;;;;;4.73;3.43;;;;;;;;;;5003190;28;20509;-77
2022/02/03 16:53:32;;;;;;;8.50;4.37;;;;;;;;;;5031404;28;20425;-77
2022/02/03 16:56:00;;;;;;;6.80;3.47;;;;;;;;;;5041738;28;20449;-77
2022/02/03 16:58:30;;;;;;;7.47;4.60;;;;;;;;;;5046109;28;20805;-77
2022/02/03 17:00:59;;;;;;;5.97;3.77;;;;;;;;;;5047556;28;20926;-77
2022/02/03 17:03:26;;;;;;;4.87;3.17;;;;;;;;;;5048432;28;20468;-77
2022/02/03 17:05:52;;;;;;;6.90;3.47;;;;;;;;;;5036986;28;20418;-77
2022/02/03 17:08:20;;;;;;;5.03;3.90;;;;;;;;;;5045177;28;20441;-76
2022/02/03 17:10:46;;;;;;;6.93;4.10;;;;;;;;;;5045419;28;22102;-76
2022/02/03 17:13:12;;;;;;;6.90;3.70;;;;;;;;;;5038233;28;20419;-78
2022/02/03 17:15:38;;;;;;;6.67;3.90;;;;;;;;;;5042344;28;20445;-76
2022/02/03 17:18:04;;;;;;;5.40;3.87;;;;;;;;;;5051661;28;20477;-77
2022/02/03 17:20:34;;;;;;;6.33;4.57;;;;;;;;;;5048906;28;20419;-76
2022/02/03 17:23:03;;;;;;;27.13;10.20;;;;;;;;;;5047129;28;20500;-77
2022/02/03 17:25:41;;;;;;;12.47;6.03;;;;;;;;;;5051120;28;20516;-77
2022/02/03 17:28:15;;;;;;;15.23;5.70;;;;;;;;;;5044775;28;20494;-77
2022/02/03 17:30:49;;;;;;;13.70;5.50;;;;;;;;;;5041243;28;20433;-78
2022/02/03 18:30:29;;;;;;;6.60;4.80;;;;;;;;;;5052995;28;20775;-76
2022/02/03 18:51:31;;;;;;;12.63;6.90;;;;;;;;;;5053585;28;20779;-77
2022/02/03 18:54:14;;;;;;;16.50;7.27;;;;;;;;;;5052877;28;21017;-76
2022/02/03 19:21:35;;;;;;;10.00;6.50;;;;;;;;;;5056455;28;20740;-76
2022/02/03 20:07:09;;;;;;;5.23;4.27;;;;;;;;;;5054928;28;20734;-77
2022/02/03 20:12:05;;;;;;;4.77;4.10;;;;;;;;;;5055268;28;20409;-76
2022/02/03 20:14:31;;;;;;;5.27;4.67;;;;;;;;;;5055339;28;20409;-76
2022/02/03 20:16:57;;;;;;;5.20;4.00;;;;;;;;;;5054851;28;20459;-76
2022/02/03 20:19:23;;;;;;;8.27;5.03;;;;;;;;;;5054896;28;20499;-76
2022/02/03 20:21:49;;;;;;;5.83;4.10;;;;;;;;;;5055204;28;20405;-76
2022/02/03 20:24:15;;;;;;;7.87;4.87;;;;;;;;;;5054882;28;20525;-76
2022/02/03 20:26:42;;;;;;;5.80;4.63;;;;;;;;;;5055102;28;20398;-76
2022/02/03 20:29:09;;;;;;;7.40;5.07;;;;;;;;;;5055084;28;20430;-76
2022/02/03 20:31:35;;;;;;;6.37;4.40;;;;;;;;;;5055612;28;20397;-76
2022/02/03 20:34:01;;;;;;;4.80;4.20;;;;;;;;;;5055416;28;20413;-76
2022/02/03 20:36:27;;;;;;;5.67;4.53;;;;;;;;;;5066431;28;20745;-76
2022/02/03 20:38:53;;;;;;;8.63;5.20;;;;;;;;;;5054995;28;20516;-76
2022/02/03 20:41:20;;;;;;;11.60;5.80;;;;;;;;;;5055177;28;20401;-77
2022/02/03 20:43:46;;;;;;;6.90;4.53;;;;;;;;;;5055318;28;20409;-76
2022/02/03 20:46:13;;;;;;;6.70;4.50;;;;;;;;;;5054702;28;20412;-76
2022/02/03 20:48:45;;;;;;;6.93;4.60;;;;;;;;;;5054352;28;20889;-76
2022/02/03 20:51:15;;;;;;;6.00;4.43;;;;;;;;;;5055112;28;20791;-76
2022/02/03 20:53:41;;;;;;;6.57;4.70;;;;;;;;;;5054665;28;20491;-76
2022/02/03 20:56:07;;;;;;;8.87;4.73;;;;;;;;;;5054533;28;20898;-76
2022/02/03 20:58:33;;;;;;;8.07;5.33;;;;;;;;;;5054457;28;20814;-76
2022/02/03 21:01:07;;;;;;;6.77;4.40;;;;;;;;;;5054342;28;20408;-76
2022/02/03 21:03:42;;;;;;;8.47;5.20;;;;;;;;;;5054574;28;20762;-76
2022/02/03 21:06:12;;;;;;;6.33;5.63;;;;;;;;;;5054489;28;20397;-76
2022/02/03 21:08:41;;;;;;;6.73;5.50;;;;;;;;;;5053905;28;20433;-76
2022/02/03 21:11:07;;;;;;;6.23;5.03;;;;;;;;;;5053194;28;20427;-75
2022/02/03 21:13:34;;;;;;;5.90;5.10;;;;;;;;;;5054186;28;20406;-75
2022/02/03 21:16:02;;;;;;;5.47;4.97;;;;;;;;;;5054146;28;20830;-75
2022/02/03 21:18:35;;;;;;;10.67;5.93;;;;;;;;;;5053943;28;20454;-75
2022/02/03 21:21:01;;;;;;;13.50;6.73;;;;;;;;;;5054354;28;20890;-74
2022/02/03 21:23:27;;;;;;;8.40;5.53;;;;;;;;;;5053870;28;20409;-75
2022/02/03 21:25:56;;;;;;;8.37;5.30;;;;;;;;;;5053656;28;20434;-75
2022/02/03 21:28:33;;;;;;;8.50;5.90;;;;;;;;;;5054250;28;20436;-75
2022/02/03 21:31:00;;;;;;;5.87;4.37;;;;;;;;;;5054438;28;20401;-75
2022/02/03 21:33:30;;;;;;;6.50;4.70;;;;;;;;;;5053928;28;20459;-76
2022/02/03 21:36:00;;;;;;;9.70;5.33;;;;;;;;;;5053851;28;20418;-76
2022/02/03 21:41:02;;;;;;;7.00;4.80;;;;;;;;;;5069457;23;20536;-82
2022/02/03 21:43:28;;;;;;;6.30;4.17;;;;;;;;;;5043038;28;20407;-82
2022/02/03 21:45:54;;;;;;;5.50;4.63;;;;;;;;;;5041933;28;20407;-79
2022/02/03 21:48:20;;;;;;;7.40;5.50;;;;;;;;;;5039026;28;20462;-82
2022/02/03 21:50:46;;;;;;;4.43;4.00;;;;;;;;;;5037736;28;20430;-82
2022/02/03 21:53:32;;;;;;;9.30;6.20;;;;;;;;;;5038951;28;20481;-82
2022/02/03 21:55:59;;;;;;;7.50;5.47;;;;;;;;;;5038808;28;20658;-82
2022/02/03 21:58:26;;;;;;;5.47;4.93;;;;;;;;;;5038854;28;20450;-81
2022/02/03 22:00:55;;;;;;;6.03;4.17;;;;;;;;;;5038856;28;20427;-83
2022/02/03 22:03:24;;;;;;;6.80;5.40;;;;;;;;;;5039436;28;20406;-82
2022/02/03 22:05:50;;;;;;;6.57;5.47;;;;;;;;;;5039216;28;20500;-82
2022/02/03 22:08:16;;;;;;;7.33;5.70;;;;;;;;;;5040656;28;20404;-82
2022/02/03 22:10:42;;;;;;;9.63;5.10;;;;;;;;;;5056425;28;20423;-82
2022/02/03 22:13:08;;;;;;;7.97;5.10;;;;;;;;;;5042987;28;20387;-83
2022/02/03 22:15:35;;;;;;;7.93;5.67;;;;;;;;;;5038037;28;20425;-83
2022/02/03 22:18:03;;;;;;;8.17;5.37;;;;;;;;;;5037569;28;20399;-82
2022/02/03 22:20:36;;;;;;;6.97;4.70;;;;;;;;;;5039322;28;20437;-81
2022/02/03 22:44:10;;;;;;;8.47;5.07;;;;;;;;;;5042530;28;20495;-82
2022/02/03 22:46:41;;;;;;;6.70;5.13;;;;;;;;;;5039790;28;20486;-82
2022/02/03 22:49:09;;;;;;;6.80;5.13;;;;;;;;;;5037809;28;20427;-82
2022/02/03 22:51:36;;;;;;;6.93;5.93;;;;;;;;;;5038604;28;20903;-82
2022/02/03 22:54:06;;;;;;;7.30;5.93;;;;;;;;;;5041248;28;20405;-82
2022/02/03 22:56:32;;;;;;;10.67;6.37;;;;;;;;;;5040709;28;20399;-81
2022/02/03 23:01:24;;;;;;;8.53;5.57;;;;;;;;;;5041045;28;20409;-81
2022/02/03 23:03:50;;;;;;;6.60;5.70;;;;;;;;;;5040923;28;20417;-80
2022/02/03 23:06:17;;;;;;;6.20;5.30;;;;;;;;;;5042185;28;20426;-81
2022/02/03 23:19:16;;;;;;;6.80;4.83;;;;;;;;;;5042155;28;20460;-82
2022/02/03 23:24:08;;;;;;;5.80;4.97;;;;;;;;;;5041540;28;20399;-82
2022/02/03 23:26:34;;;;;;;7.17;4.57;;;;;;;;;;5040908;28;20411;-82
2022/02/03 23:29:13;;;;;;;8.13;5.50;;;;;;;;;;5041668;28;20471;-82
2022/02/03 23:32:07;;;;;;;9.03;5.00;;;;;;;;;;5040320;28;20494;-82
2022/02/03 23:34:28;;;;;;;9.13;4.20;;;;;;;;;;5041657;28;20433;-82
2022/02/03 23:36:54;;;;;;;5.63;4.80;;;;;;;;;;5041390;28;20418;-82
2022/02/03 23:39:29;;;;;;;5.97;4.27;;;;;;;;;;5041317;28;20520;-83
2022/02/03 23:44:36;;;;;;;5.63;4.20;;;;;;;;;;5041219;28;20394;-82
2022/02/03 23:47:44;;;;;;;5.33;4.50;;;;;;;;;;5041871;28;20382;-83
